Time;durP1;ratioP1;P1;durP2;ratioP2;P2;SDS_P1;SDS_P2;PMS_P1;PMS_P2;Temp;Humidity;BMP_temperature;BMP_pressure;BME280_temperature;BME280_humidity;BME280_pressure;Samples;Min_cycle;Max_cycle;Signal;HPM_P1;HPM_P2
2021/12/04 00:01:52;;;;;;;42.83;21.27;;;5.30;99.90;;;;;;5089133;28;20039;-83
2021/12/04 00:04:29;;;;;;;40.72;21.20;;;5.30;99.90;;;;;;5089377;28;20494;-82
2021/12/04 00:06:55;;;;;;;40.38;20.73;;;5.30;99.90;;;;;;5079541;28;20118;-83
2021/12/04 00:09:22;;;;;;;39.72;20.45;;;5.30;99.90;;;;;;5088140;28;20079;-83
2021/12/04 00:11:54;;;;;;;40.80;19.80;;;5.30;99.90;;;;;;5073750;28;20091;-83
2021/12/04 00:14:20;;;;;;;41.63;21.40;;;5.30;99.90;;;;;;5087360;28;20131;-82
2021/12/04 00:16:46;;;;;;;44.08;21.13;;;5.30;99.90;;;;;;5072208;28;20130;-82
2021/12/04 00:19:11;;;;;;;43.05;21.27;;;5.30;99.90;;;;;;5087333;28;20028;-82
2021/12/04 00:21:37;;;;;;;39.10;20.30;;;5.30;99.90;;;;;;5102036;28;20031;-83
2021/12/04 00:24:03;;;;;;;43.47;20.10;;;5.30;99.90;;;;;;5103913;28;20055;-82
2021/12/04 00:26:29;;;;;;;43.70;21.20;;;5.30;99.90;;;;;;5101769;28;20097;-85
2021/12/04 00:28:54;;;;;;;42.78;20.58;;;5.30;99.90;;;;;;5070350;28;20054;-85
2021/12/04 00:31:20;;;;;;;42.75;20.98;;;5.30;99.90;;;;;;5075693;28;20051;-85
2021/12/04 00:33:47;;;;;;;39.92;19.95;;;5.30;99.90;;;;;;5090310;28;20090;-85
2021/12/04 00:36:27;;;;;;;38.58;19.55;;;5.30;99.90;;;;;;5072485;28;20055;-85
2021/12/04 00:49:50;;;;;;;48.00;20.55;;;5.30;99.90;;;;;;5106855;28;20448;-85
2021/12/04 00:52:16;;;;;;;42.95;19.55;;;5.30;99.90;;;;;;5085807;28;20048;-85
2021/12/04 00:54:43;;;;;;;42.50;19.48;;;5.30;99.90;;;;;;5087814;28;20036;-83
2021/12/04 00:57:08;;;;;;;41.20;19.98;;;5.30;99.90;;;;;;5071985;28;20040;-83
2021/12/04 00:59:34;;;;;;;45.88;19.83;;;5.30;99.90;;;;;;5084723;28;20062;-83
2021/12/04 01:02:00;;;;;;;42.85;19.15;;;5.30;99.90;;;;;;5106815;28;20416;-83
2021/12/04 01:04:27;;;;;;;43.03;19.23;;;5.30;99.90;;;;;;5094859;28;20035;-83
2021/12/04 01:06:53;;;;;;;46.15;19.38;;;5.30;99.90;;;;;;5096672;28;20048;-83
2021/12/04 01:09:21;;;;;;;41.53;19.52;;;5.30;99.90;;;;;;5098311;28;20402;-83
2021/12/04 01:11:49;;;;;;;41.95;18.20;;;5.30;99.90;;;;;;5092140;28;20040;-83
2021/12/04 01:14:16;;;;;;;42.55;18.88;;;5.40;99.90;;;;;;5103286;28;20480;-85
2021/12/04 01:16:42;;;;;;;45.22;20.42;;;5.30;99.90;;;;;;5091253;28;20028;-85
2021/12/04 01:19:08;;;;;;;43.40;18.85;;;5.40;99.90;;;;;;5091751;28;20063;-84
2021/12/04 01:21:34;;;;;;;40.08;18.40;;;5.30;99.90;;;;;;5091808;28;20042;-85
2021/12/04 01:24:00;;;;;;;42.60;19.13;;;5.40;99.90;;;;;;5101824;28;20407;-83
2021/12/04 01:26:26;;;;;;;40.17;18.75;;;5.40;99.90;;;;;;5090855;28;20040;-83
2021/12/04 01:28:52;;;;;;;39.38;18.77;;;5.40;99.90;;;;;;5096093;28;20038;-83
2021/12/04 01:31:18;;;;;;;38.92;17.13;;;5.40;99.90;;;;;;5094135;28;20055;-83
2021/12/04 01:33:44;;;;;;;37.28;16.95;;;5.40;99.90;;;;;;5108032;28;20519;-83
2021/12/04 01:36:10;;;;;;;42.47;18.10;;;5.40;99.90;;;;;;5082372;28;20395;-83
2021/12/04 01:38:36;;;;;;;38.17;16.75;;;5.40;99.90;;;;;;5090968;28;20172;-83
2021/12/04 01:41:02;;;;;;;37.80;18.10;;;5.40;99.90;;;;;;5073923;28;20034;-83
2021/12/04 01:43:28;;;;;;;30.92;16.33;;;5.40;99.90;;;;;;5074578;28;20036;-83
2021/12/04 01:45:55;;;;;;;32.05;17.10;;;5.40;99.90;;;;;;5090843;28;20036;-83
2021/12/04 01:48:22;;;;;;;34.97;17.25;;;5.40;99.90;;;;;;5091639;28;20048;-83
2021/12/04 01:50:48;;;;;;;31.17;15.82;;;5.40;99.90;;;;;;5084681;28;20047;-83
2021/12/04 01:53:14;;;;;;;30.13;16.48;;;5.40;99.90;;;;;;5092367;28;20460;-83
2021/12/04 01:55:39;;;;;;;32.75;16.38;;;5.40;99.90;;;;;;5103299;28;20031;-83
2021/12/04 01:58:06;;;;;;;27.27;14.80;;;5.40;99.90;;;;;;5090528;28;20036;-83
2021/12/04 02:00:35;;;;;;;28.98;14.68;;;5.40;99.90;;;;;;5069359;28;20041;-83
2021/12/04 02:03:03;;;;;;;29.40;15.05;;;5.40;99.90;;;;;;5070444;28;20032;-83
2021/12/04 02:05:29;;;;;;;29.48;15.63;;;5.40;99.90;;;;;;5061908;28;20461;-83
2021/12/04 02:07:55;;;;;;;27.33;14.55;;;5.40;99.90;;;;;;5085626;28;20072;-83
2021/12/04 02:10:21;;;;;;;28.75;14.68;;;5.40;99.90;;;;;;5099052;28;20589;-83
2021/12/04 02:12:48;;;;;;;27.50;14.65;;;5.50;99.90;;;;;;5084965;28;20400;-83
2021/12/04 02:15:16;;;;;;;25.33;14.85;;;5.40;99.90;;;;;;5087027;28;20066;-83
2021/12/04 02:17:45;;;;;;;26.50;14.73;;;5.40;99.90;;;;;;5093829;28;20085;-83
2021/12/04 02:20:20;;;;;;;27.80;15.40;;;5.50;99.90;;;;;;5089484;28;20031;-83
2021/12/04 02:22:47;;;;;;;26.38;14.93;;;5.50;99.90;;;;;;5109371;28;20078;-83
2021/12/04 02:25:13;;;;;;;26.48;14.57;;;5.50;99.90;;;;;;5078038;28;20036;-83
2021/12/04 02:27:40;;;;;;;30.17;14.88;;;5.50;99.90;;;;;;5092772;28;20039;-83
2021/12/04 02:30:15;;;;;;;24.88;14.10;;;5.50;99.90;;;;;;5075630;28;20055;-83
2021/12/04 02:32:41;;;;;;;31.05;16.13;;;5.50;99.90;;;;;;5077289;28;20040;-83
2021/12/04 02:35:08;;;;;;;25.65;15.10;;;5.40;99.90;;;;;;5077663;28;20043;-82
2021/12/04 02:37:35;;;;;;;27.00;15.73;;;5.40;99.90;;;;;;5109637;28;20504;-83
2021/12/04 02:40:03;;;;;;;28.52;15.55;;;5.40;99.90;;;;;;5095024;28;20040;-83
2021/12/04 02:42:30;;;;;;;27.13;15.48;;;5.40;99.90;;;;;;5072548;28;20040;-83
2021/12/04 02:44:58;;;;;;;27.38;15.32;;;5.40;99.90;;;;;;5091049;28;20039;-83
2021/12/04 02:47:24;;;;;;;24.67;14.18;;;5.40;99.90;;;;;;5089577;28;20047;-83
2021/12/04 02:49:50;;;;;;;30.65;15.45;;;5.50;99.90;;;;;;5089146;28;20484;-83
2021/12/04 02:52:17;;;;;;;26.20;15.82;;;5.40;99.90;;;;;;5087469;28;20035;-83
2021/12/04 02:54:43;;;;;;;25.48;14.40;;;5.40;99.90;;;;;;5072635;28;20044;-85
2021/12/04 02:57:14;;;;;;;26.52;15.13;;;5.50;99.90;;;;;;5088822;28;20554;-85
2021/12/04 02:59:40;;;;;;;23.38;14.80;;;5.40;99.90;;;;;;5083841;28;20036;-83
2021/12/04 03:02:15;;;;;;;27.45;15.10;;;5.40;99.90;;;;;;5102453;28;20042;-83
2021/12/04 03:04:41;;;;;;;28.58;15.30;;;5.40;99.90;;;;;;5090116;28;20038;-83
2021/12/04 03:07:06;;;;;;;20.95;13.10;;;5.40;99.90;;;;;;5082921;28;20036;-83
2021/12/04 03:09:32;;;;;;;23.42;13.55;;;5.50;99.90;;;;;;5108738;28;20062;-83
2021/12/04 03:12:10;;;;;;;21.85;14.13;;;5.40;99.90;;;;;;5100794;28;20042;-83
2021/12/04 03:14:36;;;;;;;25.10;14.10;;;5.40;99.90;;;;;;5071744;28;20086;-83
2021/12/04 03:17:04;;;;;;;23.67;13.98;;;5.40;99.90;;;;;;5077550;28;20043;-83
2021/12/04 03:19:30;;;;;;;20.63;13.23;;;5.40;99.90;;;;;;5085190;28;20068;-83
2021/12/04 03:21:56;;;;;;;21.85;13.48;;;5.40;99.90;;;;;;5075735;28;20152;-83
2021/12/04 03:24:24;;;;;;;20.60;12.18;;;5.40;99.90;;;;;;5082047;28;20036;-83
2021/12/04 03:26:51;;;;;;;21.25;12.60;;;5.40;99.90;;;;;;5095777;28;20488;-83
2021/12/04 03:29:20;;;;;;;20.45;12.07;;;5.40;99.90;;;;;;5087639;28;20040;-83
2021/12/04 03:42:37;;;;;;;21.67;12.60;;;5.40;99.90;;;;;;5103395;28;20039;-83
2021/12/04 03:45:05;;;;;;;22.65;13.10;;;5.40;99.90;;;;;;5091892;28;20508;-83
2021/12/04 03:47:31;;;;;;;20.88;11.93;;;5.40;99.90;;;;;;5106725;28;20046;-82
2021/12/04 03:49:57;;;;;;;23.75;11.63;;;5.40;99.90;;;;;;5093353;28;20036;-83
2021/12/04 03:52:23;;;;;;;23.17;12.00;;;5.30;99.90;;;;;;5072220;28;20146;-83
2021/12/04 03:54:49;;;;;;;18.60;11.90;;;5.40;99.90;;;;;;5094885;28;20547;-83
2021/12/04 03:57:15;;;;;;;19.20;10.32;;;5.40;99.90;;;;;;5091871;28;20305;-83
2021/12/04 03:59:45;;;;;;;19.10;11.48;;;5.40;99.90;;;;;;5092162;28;20048;-82
2021/12/04 04:02:14;;;;;;;18.63;10.30;;;5.40;99.90;;;;;;5088719;28;20036;-83
2021/12/04 04:04:40;;;;;;;20.02;11.20;;;5.30;99.90;;;;;;5081366;28;20036;-83
2021/12/04 04:07:06;;;;;;;21.63;11.45;;;5.30;99.90;;;;;;5083834;28;20492;-83
2021/12/04 04:09:33;;;;;;;19.60;10.85;;;5.30;99.90;;;;;;5089061;28;20058;-83
2021/12/04 04:11:59;;;;;;;20.33;11.35;;;5.30;99.90;;;;;;5106590;28;20042;-83
2021/12/04 04:14:25;;;;;;;21.88;11.57;;;5.30;99.90;;;;;;5097271;28;20035;-83
2021/12/04 04:16:54;;;;;;;18.58;11.23;;;5.30;99.90;;;;;;5100562;28;20067;-83
2021/12/04 04:19:20;;;;;;;17.15;9.82;;;5.30;99.90;;;;;;5086639;28;20039;-83
2021/12/04 04:21:47;;;;;;;20.92;10.68;;;5.40;99.90;;;;;;5080934;28;20043;-82
2021/12/04 04:24:16;;;;;;;22.05;10.65;;;5.40;99.90;;;;;;5083795;28;20040;-82
2021/12/04 04:26:43;;;;;;;20.75;10.98;;;5.40;99.90;;;;;;5089146;28;20071;-83
2021/12/04 04:29:10;;;;;;;21.70;11.45;;;5.40;99.90;;;;;;5086832;28;20063;-83
2021/12/04 04:31:45;;;;;;;18.80;9.80;;;5.30;99.90;;;;;;5089880;28;20039;-83
2021/12/04 04:34:11;;;;;;;20.90;10.70;;;5.30;99.90;;;;;;5088301;28;20043;-82
2021/12/04 05:11:43;;;;;;;21.85;10.93;;;5.50;99.90;;;;;;5091955;28;20105;-83
2021/12/04 05:14:16;;;;;;;20.05;10.82;;;5.50;99.90;;;;;;5088873;28;20035;-83
2021/12/04 05:16:50;;;;;;;21.38;10.63;;;5.60;99.90;;;;;;5105243;28;20040;-83
2021/12/04 05:19:37;;;;;;;20.02;11.00;;;5.60;99.90;;;;;;5072616;28;20092;-83
2021/12/04 05:22:05;;;;;;;19.25;10.48;;;5.60;99.90;;;;;;5096984;28;20054;-82
2021/12/04 05:24:32;;;;;;;24.02;11.85;;;5.60;99.90;;;;;;5089562;28;20039;-82
2021/12/04 05:26:57;;;;;;;22.00;11.18;;;5.60;99.90;;;;;;5087294;28;20512;-83
2021/12/04 05:29:23;;;;;;;21.67;11.52;;;5.60;99.90;;;;;;5084248;28;20115;-82
2021/12/04 05:31:49;;;;;;;25.77;11.75;;;5.60;99.90;;;;;;5074829;28;20044;-82
2021/12/04 05:34:15;;;;;;;22.65;10.35;;;5.60;99.90;;;;;;5077892;28;20029;-83
2021/12/04 05:36:40;;;;;;;24.35;10.95;;;5.60;99.90;;;;;;5055873;28;20113;-82
2021/12/04 05:39:06;;;;;;;23.83;11.02;;;5.60;99.90;;;;;;5073473;28;20036;-83
2021/12/04 05:41:33;;;;;;;21.02;10.93;;;5.60;99.90;;;;;;5090998;28;20683;-83
2021/12/04 05:44:04;;;;;;;27.25;12.00;;;5.70;99.90;;;;;;5090947;28;20059;-83
2021/12/04 05:46:35;;;;;;;23.25;11.25;;;5.70;99.90;;;;;;5090991;28;20043;-83
2021/12/04 05:49:07;;;;;;;20.45;10.57;;;5.60;99.90;;;;;;5090074;28;20044;-83
2021/12/04 05:57:01;;;;;;;20.50;11.30;;;5.70;99.90;;;;;;5090881;28;20044;-82
2021/12/04 05:59:27;;;;;;;19.13;11.00;;;5.70;99.90;;;;;;5092202;28;20545;-82
2021/12/04 06:01:53;;;;;;;21.13;11.38;;;5.70;99.90;;;;;;5090585;28;20063;-83
2021/12/04 06:04:19;;;;;;;22.20;10.93;;;5.70;99.90;;;;;;5092938;28;20036;-82
2021/12/04 06:06:45;;;;;;;20.08;11.25;;;5.70;99.90;;;;;;5106600;28;20032;-83
2021/12/04 06:09:11;;;;;;;20.10;10.55;;;5.70;99.90;;;;;;5093075;28;20104;-82
2021/12/04 06:11:37;;;;;;;17.15;10.68;;;5.70;99.90;;;;;;5092629;28;20040;-83
2021/12/04 06:14:04;;;;;;;18.85;10.45;;;5.70;99.90;;;;;;5072855;28;20048;-82
2021/12/04 06:16:30;;;;;;;20.70;10.43;;;5.70;99.90;;;;;;5090537;28;20043;-83
2021/12/04 06:18:58;;;;;;;16.17;9.23;;;5.70;99.90;;;;;;5090421;28;20036;-83
2021/12/04 06:24:08;;;;;;;21.67;10.38;;;5.70;99.90;;;;;;5124267;27;20119;-82
2021/12/04 06:26:36;;;;;;;17.08;10.60;;;5.70;99.90;;;;;;5069780;28;20571;-82
2021/12/04 06:29:02;;;;;;;19.23;10.60;;;5.70;99.90;;;;;;5089395;28;20044;-83
2021/12/04 06:31:29;;;;;;;22.90;10.90;;;5.70;99.90;;;;;;5086324;28;20098;-82
2021/12/04 06:33:55;;;;;;;19.23;10.95;;;5.70;99.90;;;;;;5073638;28;20064;-82
2021/12/04 06:36:22;;;;;;;23.17;10.60;;;5.70;99.90;;;;;;5089790;28;20071;-83
2021/12/04 06:38:48;;;;;;;17.92;10.45;;;5.70;99.90;;;;;;5076567;28;20043;-82
2021/12/04 06:41:13;;;;;;;22.02;10.45;;;5.70;99.90;;;;;;5097588;28;20548;-82
2021/12/04 06:43:45;;;;;;;21.58;11.07;;;5.70;99.90;;;;;;5095699;28;20123;-82
2021/12/04 06:46:11;;;;;;;18.20;10.93;;;5.70;99.90;;;;;;5090544;28;20043;-82
2021/12/04 06:56:11;;;;;;;25.50;10.52;;;5.70;99.90;;;;;;5089072;28;20035;-84
2021/12/04 06:58:37;;;;;;;22.95;11.43;;;5.70;99.90;;;;;;5102708;28;20039;-84
2021/12/04 07:01:05;;;;;;;21.55;10.95;;;5.70;99.90;;;;;;5082526;28;20035;-84
2021/12/04 07:03:30;;;;;;;22.58;10.90;;;5.70;99.90;;;;;;5092139;28;20032;-84
2021/12/04 07:05:56;;;;;;;22.20;11.82;;;5.70;99.90;;;;;;5101837;28;20046;-84
2021/12/04 07:08:22;;;;;;;22.00;11.57;;;5.70;99.90;;;;;;5103078;28;20044;-84
2021/12/04 07:10:47;;;;;;;22.42;11.52;;;5.70;99.90;;;;;;5095460;28;20400;-83
2021/12/04 07:13:13;;;;;;;21.05;11.65;;;5.70;99.90;;;;;;5090079;28;20038;-83
2021/12/04 07:15:41;;;;;;;22.55;11.10;;;5.70;99.90;;;;;;5087606;28;20390;-83
2021/12/04 07:18:07;;;;;;;19.60;10.80;;;5.70;99.90;;;;;;5095717;28;20051;-83
2021/12/04 07:20:33;;;;;;;18.67;11.18;;;5.60;99.90;;;;;;5071955;28;20036;-83
2021/12/04 07:22:59;;;;;;;20.38;10.98;;;5.60;99.90;;;;;;5072224;28;20047;-84
2021/12/04 07:25:25;;;;;;;21.55;11.60;;;5.60;99.90;;;;;;5088731;28;20436;-83
2021/12/04 07:27:51;;;;;;;24.70;11.70;;;5.70;99.90;;;;;;5064609;28;20033;-83
2021/12/04 07:30:22;;;;;;;22.73;12.38;;;5.60;99.90;;;;;;5051112;28;20064;-83
2021/12/04 07:32:47;;;;;;;26.48;11.90;;;5.60;99.90;;;;;;5082646;28;20032;-84
2021/12/04 07:35:14;;;;;;;21.85;11.20;;;5.60;99.90;;;;;;5088976;28;20067;-83
2021/12/04 07:37:40;;;;;;;22.25;10.68;;;5.60;99.90;;;;;;5093880;28;20043;-83
2021/12/04 07:40:08;;;;;;;21.80;10.80;;;5.60;99.90;;;;;;5091405;28;20047;-83
2021/12/04 07:42:34;;;;;;;20.98;10.13;;;5.60;99.90;;;;;;5065123;28;20063;-83
2021/12/04 07:44:59;;;;;;;18.88;9.90;;;5.60;99.90;;;;;;5071227;28;20059;-84
2021/12/04 07:47:26;;;;;;;19.02;9.40;;;5.60;99.90;;;;;;5093390;28;20043;-83
2021/12/04 07:49:52;;;;;;;19.27;9.85;;;5.60;99.90;;;;;;5089928;28;20130;-83
2021/12/04 07:52:18;;;;;;;16.85;9.45;;;5.60;99.90;;;;;;5094435;28;20065;-83
2021/12/04 07:54:44;;;;;;;18.15;9.68;;;5.60;99.90;;;;;;5102356;28;20800;-83
2021/12/04 07:57:10;;;;;;;17.23;9.23;;;5.60;99.90;;;;;;5095600;28;20548;-83
2021/12/04 07:59:35;;;;;;;18.67;10.75;;;5.60;99.90;;;;;;5093831;28;20119;-84
2021/12/04 08:02:01;;;;;;;15.32;9.77;;;5.60;99.90;;;;;;5095118;28;20039;-83
2021/12/04 08:04:27;;;;;;;15.40;9.40;;;5.60;99.90;;;;;;5106797;28;20118;-83
2021/12/04 08:06:53;;;;;;;15.40;8.77;;;5.60;99.90;;;;;;5076986;28;20070;-83
2021/12/04 08:09:19;;;;;;;12.90;8.52;;;5.60;99.90;;;;;;5095268;28;20496;-83
2021/12/04 08:11:46;;;;;;;13.20;8.52;;;5.60;99.90;;;;;;5091129;28;20069;-83
2021/12/04 08:14:12;;;;;;;13.60;8.82;;;5.60;99.90;;;;;;5091765;28;20471;-82
2021/12/04 08:16:38;;;;;;;17.55;9.82;;;5.60;99.90;;;;;;5089296;28;20040;-81
2021/12/04 08:19:04;;;;;;;13.95;8.93;;;5.60;99.90;;;;;;5080895;28;20279;-82
2021/12/04 08:21:30;;;;;;;15.30;9.18;;;5.60;99.90;;;;;;5062055;28;20127;-81
2021/12/04 08:23:55;;;;;;;15.63;10.30;;;5.60;99.90;;;;;;5055484;28;20119;-81
2021/12/04 08:26:21;;;;;;;15.48;9.73;;;5.60;99.90;;;;;;5078280;28;20127;-81
2021/12/04 08:28:48;;;;;;;19.23;10.98;;;5.60;99.90;;;;;;5071623;28;20050;-82
2021/12/04 08:31:14;;;;;;;17.13;10.02;;;5.60;99.90;;;;;;5080508;28;20042;-82
2021/12/04 08:33:41;;;;;;;19.60;11.35;;;5.60;99.90;;;;;;5071972;28;20127;-82
2021/12/04 08:36:06;;;;;;;18.95;11.50;;;5.70;99.90;;;;;;5096249;28;20035;-82
2021/12/04 08:38:35;;;;;;;21.40;11.52;;;5.70;99.90;;;;;;5089039;28;20481;-82
2021/12/04 08:41:03;;;;;;;19.52;11.13;;;5.60;99.90;;;;;;5079375;28;20044;-81
2021/12/04 08:43:29;;;;;;;22.70;12.13;;;5.70;99.90;;;;;;5069283;28;20040;-82
2021/12/04 08:45:55;;;;;;;20.73;11.65;;;5.60;99.90;;;;;;5078631;28;20055;-82
2021/12/04 08:48:21;;;;;;;20.60;11.38;;;5.70;99.90;;;;;;5079649;28;20053;-82
2021/12/04 08:50:48;;;;;;;23.10;11.93;;;5.70;99.90;;;;;;5086529;28;20070;-83
2021/12/04 08:53:14;;;;;;;21.42;11.35;;;5.70;99.90;;;;;;5088272;28;20484;-91
2021/12/04 08:55:42;;;;;;;25.00;12.35;;;5.70;99.90;;;;;;5086720;28;20040;-84
2021/12/04 08:58:10;;;;;;;25.70;11.95;;;5.60;99.90;;;;;;5077626;28;20040;-88
2021/12/04 09:00:50;;;;;;;23.13;12.48;;;5.70;99.90;;;;;;5074382;28;20040;-84
2021/12/04 09:03:21;;;;;;;22.95;12.38;;;5.70;99.90;;;;;;5084041;28;20036;-83
2021/12/04 09:05:47;;;;;;;20.77;11.80;;;5.80;99.90;;;;;;5077246;28;20493;-83
2021/12/04 09:08:13;;;;;;;23.40;12.15;;;5.80;99.90;;;;;;5069771;28;20032;-83
2021/12/04 09:10:42;;;;;;;23.40;11.48;;;5.80;99.90;;;;;;5070310;28;20508;-83
2021/12/04 09:13:09;;;;;;;18.20;10.43;;;5.80;99.90;;;;;;5070988;28;20038;-83
2021/12/04 09:15:36;;;;;;;21.02;11.23;;;5.80;99.90;;;;;;5087149;28;20044;-83
2021/12/04 09:18:03;;;;;;;20.98;10.52;;;5.80;99.90;;;;;;5069818;28;20044;-83
2021/12/04 09:20:30;;;;;;;21.23;11.20;;;5.80;99.90;;;;;;5087548;28;20397;-83
2021/12/04 09:22:57;;;;;;;21.70;11.20;;;5.80;99.90;;;;;;5071079;28;20036;-83
2021/12/04 09:25:25;;;;;;;20.23;10.70;;;5.80;99.90;;;;;;5091317;28;20040;-83
2021/12/04 09:30:55;;;;;;;17.98;10.93;;;5.80;99.90;;;;;;5090093;28;20129;-83
2021/12/04 10:00:45;;;;;;;18.63;10.18;;;5.90;99.90;;;;;;5090846;28;20032;-83
2021/12/04 10:18:20;;;;;;;22.48;10.70;;;5.90;99.90;;;;;;5090760;28;20052;-82
2021/12/04 10:20:59;;;;;;;23.73;11.65;;;5.90;99.90;;;;;;5083606;28;20051;-82
2021/12/04 10:34:15;;;;;;;21.77;10.50;;;6.00;99.90;;;;;;5095494;28;20044;-84
2021/12/04 10:36:41;;;;;;;25.10;10.50;;;6.00;99.90;;;;;;5093688;28;20484;-83
2021/12/04 10:39:10;;;;;;;24.38;11.82;;;6.00;99.90;;;;;;5095528;28;20113;-84
2021/12/04 10:41:40;;;;;;;21.35;10.95;;;6.00;99.90;;;;;;5077472;28;20046;-83
2021/12/04 10:44:12;;;;;;;25.92;11.45;;;6.10;99.90;;;;;;5071668;28;20080;-83
2021/12/04 10:46:38;;;;;;;25.10;11.38;;;6.10;99.90;;;;;;5094008;28;20048;-83
2021/12/04 10:49:12;;;;;;;24.98;11.98;;;6.10;99.90;;;;;;5091472;28;20042;-83
2021/12/04 10:51:50;;;;;;;25.35;13.32;;;6.10;99.90;;;;;;5078002;28;20065;-82
2021/12/04 10:54:24;;;;;;;29.98;13.32;;;6.10;99.90;;;;;;5095548;28;20291;-83
2021/12/04 10:59:36;;;;;;;34.58;14.18;;;6.00;99.90;;;;;;5090164;28;20051;-82
2021/12/04 11:02:14;;;;;;;35.10;15.13;;;6.10;99.90;;;;;;5088645;28;20070;-82
2021/12/04 11:18:53;;;;;;;31.17;13.33;;;6.10;99.90;;;;;;5082960;28;20513;-81
2021/12/04 11:21:43;;;;;;;31.40;13.48;;;6.20;99.90;;;;;;5094682;28;20312;-81
2021/12/04 11:42:47;;;;;;;28.58;13.55;;;6.20;99.90;;;;;;5085653;28;20550;-82
2021/12/04 11:45:21;;;;;;;;;;;6.20;99.90;;;;;;5066856;28;20037;-80
2021/12/04 11:47:55;;;;;;;32.90;15.00;;;6.20;99.90;;;;;;5069782;28;19923;-81
2021/12/04 11:50:31;;;;;;;34.95;16.30;;;6.20;99.90;;;;;;5080219;28;20033;-81
2021/12/04 11:53:02;;;;;;;35.38;15.55;;;6.10;99.90;;;;;;5092919;28;20282;-82
2021/12/04 11:55:32;;;;;;;34.38;16.10;;;6.10;99.90;;;;;;5083946;28;20040;-82
2021/12/04 11:57:58;;;;;;;35.13;15.60;;;6.10;99.90;;;;;;5067644;28;20557;-81
2021/12/04 12:00:28;;;;;;;40.15;16.55;;;6.20;99.90;;;;;;5084897;28;20123;-82
2021/12/04 12:03:11;;;;;;;38.13;17.52;;;6.20;99.90;;;;;;5081886;28;20050;-82
2021/12/04 12:06:07;;;;;;;36.17;16.30;;;6.20;99.90;;;;;;5084364;28;20155;-81
2021/12/04 12:08:35;;;;;;;45.03;19.17;;;6.20;99.90;;;;;;5072409;28;20385;-81
2021/12/04 12:11:28;;;;;;;48.35;19.92;;;6.20;99.90;;;;;;5083348;28;20046;-82
2021/12/04 12:14:11;;;;;;;48.45;19.73;;;6.20;99.90;;;;;;5086379;28;20043;-82
2021/12/04 12:16:45;;;;;;;49.58;20.65;;;6.20;99.90;;;;;;5067779;28;20036;-82
2021/12/04 12:19:43;;;;;;;55.90;21.27;;;6.30;99.90;;;;;;5084543;28;20044;-82
2021/12/04 12:22:29;;;;;;;51.72;22.10;;;6.20;99.90;;;;;;5079920;28;20515;-89
2021/12/04 12:25:06;;;;;;;51.17;21.57;;;6.20;99.90;;;;;;5077093;28;20068;-81
2021/12/04 12:33:33;;;;;;;59.20;21.85;;;6.20;99.90;;;;;;5087460;28;20058;-82
2021/12/04 12:36:09;;;;;;;55.35;22.33;;;6.30;99.90;;;;;;5085623;28;20170;-82
2021/12/04 12:38:44;;;;;;;62.63;24.33;;;6.20;99.90;;;;;;5077024;28;20048;-82
2021/12/04 12:41:16;;;;;;;64.60;24.83;;;6.30;99.90;;;;;;5080078;28;20114;-82
2021/12/04 12:43:49;;;;;;;69.38;26.60;;;6.30;99.90;;;;;;5069674;28;20140;-82
2021/12/04 12:46:15;;;;;;;71.10;27.25;;;6.20;99.90;;;;;;5085543;28;20519;-82
2021/12/04 12:48:52;;;;;;;74.20;28.33;;;6.20;99.90;;;;;;5074844;28;20043;-81
2021/12/04 12:51:32;;;;;;;72.43;25.95;;;6.20;99.90;;;;;;5078465;28;20045;-82
2021/12/04 12:54:03;;;;;;;77.53;26.80;;;6.20;99.90;;;;;;5091541;28;20043;-81
2021/12/04 12:56:32;;;;;;;72.38;26.02;;;6.20;99.90;;;;;;5092494;28;20078;-82
2021/12/04 12:59:05;;;;;;;77.88;26.60;;;6.20;99.90;;;;;;5075542;28;20077;-82
2021/12/04 13:13:25;;;;;;;55.75;21.27;;;6.20;99.90;;;;;;5079503;28;20076;-81
2021/12/04 13:15:52;;;;;;;55.92;21.73;;;6.20;99.90;;;;;;5059875;28;20149;-81
2021/12/04 13:18:23;;;;;;;48.20;19.80;;;6.30;99.90;;;;;;5058976;28;20045;-81
2021/12/04 13:20:51;;;;;;;50.08;21.02;;;6.30;99.90;;;;;;5081309;28;20548;-81
2021/12/04 13:23:22;;;;;;;44.78;18.42;;;6.30;99.90;;;;;;5098674;28;20044;-82
2021/12/04 13:25:56;;;;;;;47.17;18.80;;;6.30;99.90;;;;;;5080048;28;20032;-82
2021/12/04 13:28:25;;;;;;;46.55;19.92;;;6.40;99.90;;;;;;5080155;28;20043;-82
2021/12/04 13:30:51;;;;;;;52.80;20.73;;;6.30;99.90;;;;;;5075866;28;20509;-82
2021/12/04 13:33:17;;;;;;;53.13;21.52;;;6.30;99.90;;;;;;5083100;28;20078;-82
2021/12/04 13:35:45;;;;;;;54.55;21.88;;;6.30;99.90;;;;;;5065828;28;20027;-82
2021/12/04 13:38:12;;;;;;;52.70;20.85;;;6.30;99.90;;;;;;5062450;28;20055;-82
2021/12/04 13:40:39;;;;;;;48.50;19.55;;;6.30;99.90;;;;;;5086360;28;20044;-82
2021/12/04 13:43:13;;;;;;;54.78;21.55;;;6.30;99.90;;;;;;5060483;28;20041;-82
2021/12/04 13:45:39;;;;;;;55.60;22.33;;;6.30;99.90;;;;;;5089993;28;20059;-81
2021/12/04 13:48:06;;;;;;;54.85;22.65;;;6.40;99.90;;;;;;5083318;28;20047;-82
2021/12/04 13:53:26;;;;;;;57.15;22.67;;;6.30;99.90;;;;;;5084935;28;20405;-82
2021/12/04 13:56:02;;;;;;;58.40;24.42;;;6.30;99.90;;;;;;5077856;28;20040;-82
2021/12/04 13:58:28;;;;;;;59.03;25.83;;;6.30;99.90;;;;;;5077408;28;20263;-82
2021/12/04 14:00:54;;;;;;;61.20;26.13;;;6.30;99.90;;;;;;5076915;28;20029;-82
2021/12/04 14:03:26;;;;;;;65.22;26.45;;;6.40;99.90;;;;;;5082412;28;20028;-82
2021/12/04 14:05:52;;;;;;;59.95;24.40;;;6.30;99.90;;;;;;5076727;28;20028;-82
2021/12/04 14:08:19;;;;;;;63.30;24.60;;;6.40;99.90;;;;;;5073188;28;20139;-82
2021/12/04 14:10:47;;;;;;;66.78;27.23;;;6.30;99.90;;;;;;5075104;28;20040;-82
2021/12/04 14:13:18;;;;;;;62.58;25.65;;;6.30;99.90;;;;;;5075846;28;20585;-82
2021/12/04 14:15:45;;;;;;;62.72;25.52;;;6.30;99.90;;;;;;5082148;28;20041;-82
2021/12/04 14:18:17;;;;;;;59.15;24.95;;;6.30;99.90;;;;;;5080454;28;20040;-83
2021/12/04 14:20:47;;;;;;;61.53;25.33;;;6.30;99.90;;;;;;5098222;28;20046;-82
2021/12/04 14:23:13;;;;;;;63.47;25.10;;;6.30;99.90;;;;;;5072976;28;20036;-82
2021/12/04 14:25:45;;;;;;;66.80;24.85;;;6.30;99.90;;;;;;5077552;28;20031;-81
2021/12/04 14:28:18;;;;;;;58.83;26.42;;;6.30;99.90;;;;;;5079048;28;20043;-82
2021/12/04 14:30:46;;;;;;;66.40;24.00;;;6.20;99.90;;;;;;5054840;28;20048;-82
2021/12/04 14:33:17;;;;;;;66.38;26.45;;;6.20;99.90;;;;;;5075771;28;20098;-82
2021/12/04 14:35:46;;;;;;;63.72;25.13;;;6.20;99.90;;;;;;5075546;28;20082;-82
2021/12/04 14:38:14;;;;;;;63.25;26.73;;;6.20;99.90;;;;;;5075239;28;20055;-82
2021/12/04 14:40:45;;;;;;;58.30;24.13;;;6.20;99.90;;;;;;5057041;28;20082;-81
2021/12/04 14:43:17;;;;;;;67.28;26.42;;;6.30;99.90;;;;;;5077117;28;20029;-82
2021/12/04 14:45:46;;;;;;;61.45;25.15;;;6.30;99.90;;;;;;5072344;28;20059;-81
2021/12/04 14:48:20;;;;;;;54.03;23.60;;;6.30;99.90;;;;;;5072685;28;20036;-81
2021/12/04 14:50:49;;;;;;;62.72;25.35;;;6.20;99.90;;;;;;5077459;28;20039;-82
2021/12/04 14:53:18;;;;;;;66.00;24.15;;;6.20;99.90;;;;;;5078025;28;20459;-82
2021/12/04 14:55:49;;;;;;;63.25;26.67;;;6.20;99.90;;;;;;5059797;28;20507;-82
2021/12/04 14:58:19;;;;;;;66.75;26.20;;;6.30;99.90;;;;;;5077285;28;20079;-82
2021/12/04 15:00:54;;;;;;;54.40;23.25;;;6.30;99.90;;;;;;5074981;28;20085;-81
2021/12/04 15:03:51;;;;;;;60.47;23.13;;;6.30;99.90;;;;;;5072491;28;20401;-81
2021/12/04 15:06:21;;;;;;;58.00;24.23;;;6.30;99.90;;;;;;5076083;28;20296;-81
2021/12/04 15:08:53;;;;;;;54.97;23.88;;;6.20;99.90;;;;;;5075865;28;20043;-82
2021/12/04 15:11:21;;;;;;;55.05;22.52;;;6.20;99.90;;;;;;5096770;28;20425;-81
2021/12/04 15:14:07;;;;;;;55.80;23.38;;;6.30;99.90;;;;;;5097172;28;20039;-81
2021/12/04 15:16:38;;;;;;;56.75;23.30;;;6.30;99.90;;;;;;5056388;28;20082;-81
2021/12/04 15:19:15;;;;;;;57.35;23.40;;;6.20;99.90;;;;;;5088485;28;20092;-81
2021/12/04 15:21:46;;;;;;;60.95;24.88;;;6.20;99.90;;;;;;5063831;28;20470;-81
2021/12/04 15:24:15;;;;;;;59.72;23.92;;;6.30;99.90;;;;;;5077186;28;20040;-81
2021/12/04 15:26:42;;;;;;;60.42;25.08;;;6.30;99.90;;;;;;5071061;28;20542;-81
2021/12/04 15:29:19;;;;;;;67.18;29.20;;;6.30;99.90;;;;;;5073226;28;20050;-82
2021/12/04 15:31:45;;;;;;;60.30;24.85;;;6.30;99.90;;;;;;5075077;28;20040;-81
2021/12/04 15:34:11;;;;;;;65.18;27.20;;;6.30;99.90;;;;;;5075853;28;20047;-81
2021/12/04 15:36:40;;;;;;;68.57;28.55;;;6.30;99.90;;;;;;5060216;28;20397;-81
2021/12/04 15:39:14;;;;;;;76.70;32.13;;;6.30;99.90;;;;;;5056645;28;20047;-81
2021/12/04 15:44:41;;;;;;;93.47;36.60;;;6.30;99.90;;;;;;5077081;28;20079;-82
2021/12/04 15:49:54;;;;;;;84.80;34.22;;;6.30;99.90;;;;;;5088348;28;20481;-81
2021/12/04 15:55:18;;;;;;;64.97;26.42;;;6.30;99.90;;;;;;5093014;28;20127;-82
2021/12/04 15:57:56;;;;;;;69.53;26.83;;;6.30;99.90;;;;;;5085040;28;20412;-81
2021/12/04 16:00:26;;;;;;;60.97;25.67;;;6.30;99.90;;;;;;5077707;28;20124;-81